Time;durP1;ratioP1;P1;durP2;ratioP2;P2;SDS_P1;SDS_P2;PMS_P1;PMS_P2;Temp;Humidity;BMP_temperature;BMP_pressure;BME280_temperature;BME280_humidity;BME280_pressure;Samples;Min_cycle;Max_cycle;Signal;HPM_P1;HPM_P2
2023/05/01 00:02:29;;;;;;;;;;;;;;;;;;5082152;28;19917;-75
2023/05/01 00:05:15;;;;;;;;;;;;;;;;;;5073787;28;19927;-75
2023/05/01 00:08:02;;;;;;;;;;;;;;;;;;5077938;28;19920;-76
2023/05/01 00:10:48;;;;;;;;;;;;;;;;;;5075827;28;19935;-75
2023/05/01 00:13:35;;;;;;;;;;;;;;;;;;5090937;28;19978;-76
2023/05/01 00:16:21;;;;;;;;;;;;;;;;;;5075536;28;19975;-76
2023/05/01 00:19:08;;;;;;;;;;;;;;;;;;5081998;28;19915;-75
2023/05/01 00:21:54;;;;;;;;;;;;;;;;;;5082737;28;19916;-76
2023/05/01 00:24:41;;;;;;;;;;;;;;;;;;5075239;28;20793;-76
2023/05/01 00:27:27;;;;;;;;;;;;;;;;;;5083096;28;19930;-75
2023/05/01 00:30:14;;;;;;;;;;;;;;;;;;5071804;28;19920;-76
2023/05/01 00:33:00;;;;;;;;;;;;;;;;;;5082508;28;19917;-76
2023/05/01 00:35:47;;;;;;;;;;;;;;;;;;5084486;28;19928;-77
2023/05/01 00:38:34;;;;;;;;;;;;;;;;;;5079490;28;19922;-75
2023/05/01 00:41:20;;;;;;;;;;;;;;;;;;5086269;28;19917;-75
2023/05/01 00:44:07;;;;;;;;;;;;;;;;;;5072327;28;19923;-76
2023/05/01 00:46:55;;;;;;;;;;;;;;;;;;5062152;28;19924;-76
2023/05/01 00:49:41;;;;;;;;;;;;;;;;;;5076904;28;20354;-76
2023/05/01 00:52:28;;;;;;;;;;;;;;;;;;5075966;28;19920;-75
2023/05/01 00:55:14;;;;;;;;;;;;;;;;;;5087786;28;19926;-76
2023/05/01 00:58:01;;;;;;;;;;;;;;;;;;5083817;28;19927;-76
2023/05/01 01:00:47;;;;;;;;;;;;;;;;;;5060551;28;19924;-76
2023/05/01 01:03:34;;;;;;;;;;;;;;;;;;5084454;28;20601;-76
2023/05/01 01:06:21;;;;;;;;;;;;;;;;;;5072506;28;19912;-75
2023/05/01 01:09:07;;;;;;;;;;;;;;;;;;5075957;28;19932;-75
2023/05/01 01:11:54;;;;;;;;;;;;;;;;;;5076373;28;19927;-76
2023/05/01 01:14:40;;;;;;;;;;;;;;;;;;5082129;28;19943;-76
2023/05/01 01:17:28;;;;;;;;;;;;;;;;;;5073509;28;19913;-76
2023/05/01 01:20:14;;;;;;;;;;;;;;;;;;5075015;28;19916;-76
2023/05/01 01:23:01;;;;;;;;;;;;;;;;;;5072444;28;19927;-76
2023/05/01 01:25:47;;;;;;;;;;;;;;;;;;5066368;28;19927;-76
2023/05/01 01:28:35;;;;;;;;;;;;;;;;;;5067016;28;19928;-76
2023/05/01 01:31:22;;;;;;;;;;;;;;;;;;5079308;28;19947;-74
2023/05/01 01:34:08;;;;;;;;;;;;;;;;;;5082715;28;19935;-76
2023/05/01 01:36:55;;;;;;;;;;;;;;;;;;5076911;28;19920;-75
2023/05/01 01:39:42;;;;;;;;;;;;;;;;;;5080291;28;19920;-75
2023/05/01 01:42:28;;;;;;;;;;;;;;;;;;5080155;28;19954;-75
2023/05/01 01:45:14;;;;;;;;;;;;;;;;;;5080393;28;19920;-75
2023/05/01 01:48:01;;;;;;;;;;;;;;;;;;5074459;28;19935;-74
2023/05/01 01:50:47;;;;;;;;;;;;;;;;;;5081430;28;19927;-76
2023/05/01 01:53:36;;;;;;;;;;;;;;;;;;5082083;28;19923;-76
2023/05/01 01:56:24;;;;;;;;;;;;;;;;;;5082242;28;19922;-75
2023/05/01 01:59:10;;;;;;;;;;;;;;;;;;5080937;28;19916;-76
2023/05/01 02:01:57;;;;;;;;;;;;;;;;;;5064486;28;19916;-76
2023/05/01 02:04:43;;;;;;;;;;;;;;;;;;5076001;28;19929;-76
2023/05/01 02:07:30;;;;;;;;;;;;;;;;;;5075338;28;19919;-76
2023/05/01 02:10:17;;;;;;;;;;;;;;;;;;5094480;28;19946;-75
2023/05/01 02:13:03;;;;;;;;;;;;;;;;;;5085838;28;19923;-75
2023/05/01 02:15:49;;;;;;;;;;;;;;;;;;5089448;28;19927;-76
2023/05/01 02:18:36;;;;;;;;;;;;;;;;;;5084227;28;19920;-75
2023/05/01 02:21:22;;;;;;;;;;;;;;;;;;5080918;28;20451;-76
2023/05/01 02:24:09;;;;;;;;;;;;;;;;;;5085970;28;19920;-75
2023/05/01 02:26:56;;;;;;;;;;;;;;;;;;5081663;28;19916;-75
2023/05/01 02:29:43;;;;;;;;;;;;;;;;;;5082196;28;20485;-75
2023/05/01 02:32:30;;;;;;;;;;;;;;;;;;5084793;28;19939;-75
2023/05/01 02:35:17;;;;;;;;;;;;;;;;;;5088675;28;19924;-75
2023/05/01 02:38:03;;;;;;;;;;;;;;;;;;5094655;28;19919;-75
2023/05/01 02:40:50;;;;;;;;;;;;;;;;;;5081920;28;19924;-75
2023/05/01 02:43:36;;;;;;;;;;;;;;;;;;5059079;28;19943;-74
2023/05/01 02:46:23;;;;;;;;;;;;;;;;;;5074999;28;19935;-76
2023/05/01 02:49:09;;;;;;;;;;;;;;;;;;5078746;28;19943;-75
2023/05/01 02:51:56;;;;;;;;;;;;;;;;;;5082714;28;19912;-75
2023/05/01 02:54:44;;;;;;;;;;;;;;;;;;5082726;28;19931;-75
2023/05/01 02:57:30;;;;;;;;;;;;;;;;;;5086663;28;19920;-75
2023/05/01 03:00:17;;;;;;;;;;;;;;;;;;5084304;28;20336;-75
2023/05/01 03:03:03;;;;;;;;;;;;;;;;;;5084296;28;19923;-74
2023/05/01 03:05:51;;;;;;;;;;;;;;;;;;5084202;28;19927;-75
2023/05/01 03:08:37;;;;;;;;;;;;;;;;;;5082910;28;19939;-75
2023/05/01 03:11:23;;;;;;;;;;;;;;;;;;5096984;28;19926;-75
2023/05/01 03:14:10;;;;;;;;;;;;;;;;;;5089284;28;19920;-75
2023/05/01 03:16:57;;;;;;;;;;;;;;;;;;5090206;28;19916;-76
2023/05/01 03:19:43;;;;;;;;;;;;;;;;;;5085387;28;19924;-75
2023/05/01 03:22:31;;;;;;;;;;;;;;;;;;5077891;28;20431;-75
2023/05/01 03:25:18;;;;;;;;;;;;;;;;;;5084961;28;19924;-75
2023/05/01 03:28:05;;;;;;;;;;;;;;;;;;5086006;28;19923;-75
2023/05/01 03:30:51;;;;;;;;;;;;;;;;;;5093639;28;19930;-75
2023/05/01 03:33:38;;;;;;;;;;;;;;;;;;5085359;28;19920;-75
2023/05/01 03:36:26;;;;;;;;;;;;;;;;;;5085167;28;20666;-75
2023/05/01 03:39:12;;;;;;;;;;;;;;;;;;5086848;28;19927;-75
2023/05/01 03:41:59;;;;;;;;;;;;;;;;;;5077151;28;19991;-75
2023/05/01 03:44:46;;;;;;;;;;;;;;;;;;5074275;28;19926;-75
2023/05/01 03:47:33;;;;;;;;;;;;;;;;;;5079582;28;19920;-75
2023/05/01 03:50:20;;;;;;;;;;;;;;;;;;5085452;28;19928;-75
2023/05/01 03:53:06;;;;;;;;;;;;;;;;;;5084273;28;19916;-74
2023/05/01 03:55:53;;;;;;;;;;;;;;;;;;5093501;28;19924;-75
2023/05/01 03:58:39;;;;;;;;;;;;;;;;;;5076214;28;20379;-79
2023/05/01 04:01:26;;;;;;;;;;;;;;;;;;5085624;28;19916;-74
2023/05/01 04:04:12;;;;;;;;;;;;;;;;;;5084829;28;19920;-74
2023/05/01 04:06:59;;;;;;;;;;;;;;;;;;5078375;28;21428;-74
2023/05/01 04:09:47;;;;;;;;;;;;;;;;;;5083690;28;19931;-74
2023/05/01 04:12:33;;;;;;;;;;;;;;;;;;5079242;28;19920;-74
2023/05/01 04:15:21;;;;;;;;;;;;;;;;;;5093050;28;19916;-75
2023/05/01 04:18:08;;;;;;;;;;;;;;;;;;5082767;28;19912;-75
2023/05/01 04:20:55;;;;;;;;;;;;;;;;;;5077335;28;19921;-75
2023/05/01 04:23:41;;;;;;;;;;;;;;;;;;5082344;28;19916;-75
2023/05/01 04:26:28;;;;;;;;;;;;;;;;;;5083710;28;19923;-74
2023/05/01 04:29:14;;;;;;;;;;;;;;;;;;5082864;28;19924;-74
2023/05/01 04:32:01;;;;;;;;;;;;;;;;;;5080941;28;20367;-75
2023/05/01 04:34:48;;;;;;;;;;;;;;;;;;5081884;28;19924;-74
2023/05/01 04:37:34;;;;;;;;;;;;;;;;;;5079382;28;20278;-75
2023/05/01 04:40:21;;;;;;;;;;;;;;;;;;5080529;28;20720;-76
2023/05/01 04:43:07;;;;;;;;;;;;;;;;;;5083152;28;19924;-75
2023/05/01 04:45:54;;;;;;;;;;;;;;;;;;5084211;28;19916;-75
2023/05/01 04:48:40;;;;;;;;;;;;;;;;;;5082942;28;19916;-76
2023/05/01 04:51:27;;;;;;;;;;;;;;;;;;5079294;28;19926;-75
2023/05/01 04:54:14;;;;;;;;;;;;;;;;;;5082290;28;19922;-75
2023/05/01 04:57:02;;;;;;;;;;;;;;;;;;5084935;28;19920;-75
2023/05/01 04:59:48;;;;;;;;;;;;;;;;;;5084312;28;20362;-75
2023/05/01 05:02:35;;;;;;;;;;;;;;;;;;5083297;28;19912;-76
2023/05/01 05:05:21;;;;;;;;;;;;;;;;;;5084504;28;19926;-76
2023/05/01 05:08:08;;;;;;;;;;;;;;;;;;5069955;28;19920;-76
2023/05/01 05:10:54;;;;;;;;;;;;;;;;;;5081076;28;20034;-76
2023/05/01 05:13:41;;;;;;;;;;;;;;;;;;5086233;28;19912;-76
2023/05/01 05:16:27;;;;;;;;;;;;;;;;;;5088821;28;20395;-76
2023/05/01 05:19:14;;;;;;;;;;;;;;;;;;5077149;28;19916;-76
2023/05/01 05:22:00;;;;;;;;;;;;;;;;;;5074472;28;20350;-76
2023/05/01 05:24:47;;;;;;;;;;;;;;;;;;5075653;28;19912;-77
2023/05/01 05:27:36;;;;;;;;;;;;;;;;;;5082426;28;19939;-76
2023/05/01 05:30:23;;;;;;;;;;;;;;;;;;5086310;28;19928;-77
2023/05/01 05:33:10;;;;;;;;;;;;;;;;;;5075653;28;19920;-77
2023/05/01 05:35:56;;;;;;;;;;;;;;;;;;5080070;28;19924;-77
2023/05/01 05:38:43;;;;;;;;;;;;;;;;;;5075209;28;19915;-77
2023/05/01 05:41:29;;;;;;;;;;;;;;;;;;5075279;28;19920;-77
2023/05/01 05:44:16;;;;;;;;;;;;;;;;;;5091093;28;19916;-77
2023/05/01 05:47:02;;;;;;;;;;;;;;;;;;5089562;28;19927;-77
2023/05/01 05:49:49;;;;;;;;;;;;;;;;;;5084751;28;19927;-76
2023/05/01 05:52:35;;;;;;;;;;;;;;;;;;5080103;28;20058;-76
2023/05/01 05:55:22;;;;;;;;;;;;;;;;;;5076936;28;20534;-77
2023/05/01 05:58:08;;;;;;;;;;;;;;;;;;5081785;28;19916;-77
2023/05/01 06:00:55;;;;;;;;;;;;;;;;;;5082752;28;19920;-76
2023/05/01 06:03:41;;;;;;;;;;;;;;;;;;5060181;28;19947;-76
2023/05/01 06:06:28;;;;;;;;;;;;;;;;;;5079369;28;19973;-76
2023/05/01 06:09:16;;;;;;;;;;;;;;;;;;5081470;28;19925;-76
2023/05/01 06:12:04;;;;;;;;;;;;;;;;;;5076507;28;19920;-76
2023/05/01 06:14:51;;;;;;;;;;;;;;;;;;5085385;28;19920;-76
2023/05/01 06:17:37;;;;;;;;;;;;;;;;;;5080406;28;19927;-76
2023/05/01 06:20:24;;;;;;;;;;;;;;;;;;5079610;28;19916;-76
2023/05/01 06:23:12;;;;;;;;;;;;;;;;;;5070816;28;19916;-77
2023/05/01 06:25:59;;;;;;;;;;;;;;;;;;5093779;28;19916;-76
2023/05/01 06:28:45;;;;;;;;;;;;;;;;;;5076702;28;20324;-77
2023/05/01 06:31:32;;;;;;;;;;;;;;;;;;5079672;28;19920;-76
2023/05/01 06:34:18;;;;;;;;;;;;;;;;;;5081937;28;19928;-76
2023/05/01 06:37:06;;;;;;;;;;;;;;;;;;5083653;28;19920;-76
2023/05/01 06:39:53;;;;;;;;;;;;;;;;;;5069959;28;19912;-76
2023/05/01 06:42:39;;;;;;;;;;;;;;;;;;5090064;28;19920;-81
2023/05/01 06:45:26;;;;;;;;;;;;;;;;;;5079704;28;20657;-75
2023/05/01 06:48:12;;;;;;;;;;;;;;;;;;5076638;28;19953;-75
2023/05/01 06:50:59;;;;;;;;;;;;;;;;;;5098386;28;19927;-75
2023/05/01 06:53:45;;;;;;;;;;;;;;;;;;5076404;28;19920;-76
2023/05/01 06:56:32;;;;;;;;;;;;;;;;;;5080335;28;20027;-74
2023/05/01 06:59:18;;;;;;;;;;;;;;;;;;5084672;28;19923;-75
2023/05/01 07:02:05;;;;;;;;;;;;;;;;;;5086457;28;19924;-76
2023/05/01 07:04:51;;;;;;;;;;;;;;;;;;5085443;28;19920;-76
2023/05/01 07:07:38;;;;;;;;;;;;;;;;;;5083159;28;19938;-75
2023/05/01 07:10:24;;;;;;;;;;;;;;;;;;5084888;28;19928;-75
2023/05/01 07:13:11;;;;;;;;;;;;;;;;;;5089394;28;19920;-75
2023/05/01 07:15:57;;;;;;;;;;;;;;;;;;5084154;28;20499;-75
2023/05/01 07:18:44;;;;;;;;;;;;;;;;;;5083274;28;20368;-78
2023/05/01 07:21:31;;;;;;;;;;;;;;;;;;5080999;28;19920;-77
2023/05/01 07:24:17;;;;;;;;;;;;;;;;;;5078860;28;19996;-77
2023/05/01 07:27:04;;;;;;;;;;;;;;;;;;5089799;28;20294;-76
2023/05/01 07:29:51;;;;;;;;;;;;;;;;;;5072093;28;19968;-77
2023/05/01 07:32:37;;;;;;;;;;;;;;;;;;5090539;28;19916;-77
2023/05/01 07:35:24;;;;;;;;;;;;;;;;;;5085648;28;19932;-79
2023/05/01 07:38:10;;;;;;;;;;;;;;;;;;5088007;28;19927;-76
2023/05/01 07:40:57;;;;;;;;;;;;;;;;;;5086119;28;19920;-77
2023/05/01 07:43:43;;;;;;;;;;;;;;;;;;5083623;28;19962;-78
2023/05/01 07:46:30;;;;;;;;;;;;;;;;;;5087608;28;19920;-77
2023/05/01 07:49:16;;;;;;;;;;;;;;;;;;5086725;28;20569;-76
2023/05/01 07:52:04;;;;;;;;;;;;;;;;;;5070980;28;19921;-76
2023/05/01 07:54:50;;;;;;;;;;;;;;;;;;5086494;28;19916;-77
2023/05/01 07:57:37;;;;;;;;;;;;;;;;;;5078077;28;19924;-77
2023/05/01 08:00:24;;;;;;;;;;;;;;;;;;5061395;28;19939;-76
2023/05/01 08:03:11;;;;;;;;;;;;;;;;;;5080062;28;19916;-76
2023/05/01 08:05:58;;;;;;;;;;;;;;;;;;5085145;28;20292;-76
2023/05/01 08:08:44;;;;;;;;;;;;;;;;;;5079612;28;19928;-76
2023/05/01 08:11:32;;;;;;;;;;;;;;;;;;5075199;28;19930;-77
2023/05/01 08:14:18;;;;;;;;;;;;;;;;;;5085650;28;19927;-77
2023/05/01 08:17:05;;;;;;;;;;;;;;;;;;5081866;28;20294;-76
2023/05/01 08:19:55;;;;;;;;;;;;;;;;;;5083682;28;19920;-76
2023/05/01 08:22:41;;;;;;;;;;;;;;;;;;5070794;28;19920;-76
2023/05/01 08:25:28;;;;;;;;;;;;;;;;;;5084496;28;20251;-76
2023/05/01 08:28:15;;;;;;;;;;;;;;;;;;5066210;28;19920;-76
2023/05/01 08:31:02;;;;;;;;;;;;;;;;;;5089852;28;20346;-76
2023/05/01 08:33:48;;;;;;;;;;;;;;;;;;5092703;28;19924;-76
2023/05/01 08:36:35;;;;;;;;;;;;;;;;;;5087728;28;19927;-77
2023/05/01 08:39:22;;;;;;;;;;;;;;;;;;5074694;28;19917;-76
2023/05/01 08:42:08;;;;;;;;;;;;;;;;;;5073381;28;20269;-76
2023/05/01 08:44:55;;;;;;;;;;;;;;;;;;5083065;28;19920;-77
2023/05/01 08:47:42;;;;;;;;;;;;;;;;;;5093194;28;19920;-76
2023/05/01 08:50:28;;;;;;;;;;;;;;;;;;5097258;27;19928;-77
2023/05/01 08:53:15;;;;;;;;;;;;;;;;;;5082094;28;19924;-76
2023/05/01 08:56:02;;;;;;;;;;;;;;;;;;5085806;28;19924;-76
2023/05/01 08:58:49;;;;;;;;;;;;;;;;;;5070460;28;20401;-77
2023/05/01 09:01:36;;;;;;;;;;;;;;;;;;5085409;28;19920;-77
2023/05/01 09:04:22;;;;;;;;;;;;;;;;;;5064447;28;19916;-77
2023/05/01 09:07:09;;;;;;;;;;;;;;;;;;5084073;28;20529;-77
2023/05/01 09:09:55;;;;;;;;;;;;;;;;;;5078532;28;19935;-78
2023/05/01 09:12:43;;;;;;;;;;;;;;;;;;5078633;28;19916;-78
2023/05/01 09:15:30;;;;;;;;;;;;;;;;;;5083835;28;19916;-78
2023/05/01 09:18:16;;;;;;;;;;;;;;;;;;5082467;28;19927;-78
2023/05/01 09:21:03;;;;;;;;;;;;;;;;;;5058011;28;20303;-77
2023/05/01 09:23:50;;;;;;;;;;;;;;;;;;5081724;28;19916;-77
2023/05/01 09:26:39;;;;;;;;;;;;;;;;;;5065779;28;20295;-76
2023/05/01 09:29:26;;;;;;;;;;;;;;;;;;5073095;28;19924;-77
2023/05/01 09:32:12;;;;;;;;;;;;;;;;;;5071793;28;19920;-77
2023/05/01 09:35:00;;;;;;;;;;;;;;;;;;5067170;28;19934;-78
2023/05/01 09:37:46;;;;;;;;;;;;;;;;;;5068834;28;19927;-78
2023/05/01 09:40:33;;;;;;;;;;;;;;;;;;5052375;28;19973;-76
2023/05/01 09:43:20;;;;;;;;;;;;;;;;;;5083983;28;19927;-76
2023/05/01 09:46:10;;;;;;;;;;;;;;;;;;5083203;28;19920;-78
2023/05/01 09:48:57;;;;;;;;;;;;;;;;;;5083725;28;19947;-77
2023/05/01 09:51:43;;;;;;;;;;;;;;;;;;5080671;28;19920;-73
2023/05/01 09:54:31;;;;;;;;;;;;;;;;;;5077944;28;19927;-72
2023/05/01 09:57:17;;;;;;;;;;;;;;;;;;5082383;28;20314;-72
2023/05/01 10:00:07;;;;;;;;;;;;;;;;;;5079736;28;19916;-72
2023/05/01 10:02:53;;;;;;;;;;;;;;;;;;5082084;28;19927;-73
2023/05/01 10:05:40;;;;;;;;;;;;;;;;;;5080272;28;19923;-74
2023/05/01 10:08:26;;;;;;;;;;;;;;;;;;5082713;28;19959;-73
2023/05/01 10:11:13;;;;;;;;;;;;;;;;;;5086015;28;19930;-73
2023/05/01 10:14:00;;;;;;;;;;;;;;;;;;5079529;28;21318;-73
2023/05/01 10:16:48;;;;;;;;;;;;;;;;;;5078304;28;19922;-73
2023/05/01 10:19:34;;;;;;;;;;;;;;;;;;5077892;28;19920;-73
2023/05/01 10:22:21;;;;;;;;;;;;;;;;;;5083761;28;19916;-73
2023/05/01 10:25:07;;;;;;;;;;;;;;;;;;5070751;28;19916;-73
2023/05/01 10:27:55;;;;;;;;;;;;;;;;;;5083702;28;20409;-73
2023/05/01 10:30:42;;;;;;;;;;;;;;;;;;5084334;28;20394;-73
2023/05/01 10:33:28;;;;;;;;;;;;;;;;;;5084252;28;19920;-73
2023/05/01 10:36:15;;;;;;;;;;;;;;;;;;5075288;28;19916;-73
2023/05/01 10:39:02;;;;;;;;;;;;;;;;;;5083913;28;19920;-73
2023/05/01 10:41:48;;;;;;;;;;;;;;;;;;5083630;28;19938;-73
2023/05/01 10:44:35;;;;;;;;;;;;;;;;;;5083633;28;19924;-76
2023/05/01 10:47:22;;;;;;;;;;;;;;;;;;5071991;28;19926;-73
2023/05/01 10:50:08;;;;;;;;;;;;;;;;;;5076686;28;20303;-73
2023/05/01 10:52:54;;;;;;;;;;;;;;;;;;5070239;28;19920;-73
2023/05/01 10:55:44;;;;;;;;;;;;;;;;;;5087124;28;19916;-74
2023/05/01 10:58:31;;;;;;;;;;;;;;;;;;5084843;28;19912;-73
2023/05/01 11:01:17;;;;;;;;;;;;;;;;;;5083512;28;19912;-73
2023/05/01 11:04:04;;;;;;;;;;;;;;;;;;5082563;28;20328;-74
2023/05/01 11:06:50;;;;;;;;;;;;;;;;;;5082883;28;19923;-74
2023/05/01 11:09:37;;;;;;;;;;;;;;;;;;5089811;28;20547;-74
2023/05/01 11:12:24;;;;;;;;;;;;;;;;;;5083186;28;19916;-73
2023/05/01 11:15:10;;;;;;;;;;;;;;;;;;5079178;28;19912;-73
2023/05/01 11:17:57;;;;;;;;;;;;;;;;;;5082080;28;19927;-74
2023/05/01 11:20:43;;;;;;;;;;;;;;;;;;5090791;28;19912;-74
2023/05/01 11:23:30;;;;;;;;;;;;;;;;;;5079778;28;19926;-73
2023/05/01 11:26:16;;;;;;;;;;;;;;;;;;5087281;28;19975;-74
2023/05/01 11:29:03;;;;;;;;;;;;;;;;;;5084202;28;20469;-74
2023/05/01 11:31:50;;;;;;;;;;;;;;;;;;5085620;28;19923;-75
2023/05/01 11:34:36;;;;;;;;;;;;;;;;;;5083047;28;19999;-74
2023/05/01 11:37:23;;;;;;;;;;;;;;;;;;5082876;28;19912;-74
2023/05/01 11:40:10;;;;;;;;;;;;;;;;;;5075737;28;20455;-73
2023/05/01 11:42:56;;;;;;;;;;;;;;;;;;5087486;28;19912;-74
2023/05/01 11:45:43;;;;;;;;;;;;;;;;;;5079134;28;19971;-74
2023/05/01 11:48:30;;;;;;;;;;;;;;;;;;5082929;28;19920;-73
2023/05/01 11:51:17;;;;;;;;;;;;;;;;;;5079329;28;19927;-74
2023/05/01 11:54:04;;;;;;;;;;;;;;;;;;5075383;28;19923;-74
2023/05/01 11:56:50;;;;;;;;;;;;;;;;;;5085031;28;19939;-74
2023/05/01 11:59:37;;;;;;;;;;;;;;;;;;5085485;28;19920;-73
2023/05/01 12:02:24;;;;;;;;;;;;;;;;;;5088186;28;19923;-74
2023/05/01 12:05:10;;;;;;;;;;;;;;;;;;5085404;28;19927;-74
2023/05/01 12:07:57;;;;;;;;;;;;;;;;;;5080111;28;20306;-74
2023/05/01 12:10:44;;;;;;;;;;;;;;;;;;5076241;28;20291;-74
2023/05/01 12:13:30;;;;;;;;;;;;;;;;;;5085752;28;19931;-74
2023/05/01 12:16:17;;;;;;;;;;;;;;;;;;5078570;28;19974;-73
2023/05/01 12:19:03;;;;;;;;;;;;;;;;;;5079222;28;19926;-73
2023/05/01 12:21:50;;;;;;;;;;;;;;;;;;5081626;28;19912;-73
2023/05/01 12:24:36;;;;;;;;;;;;;;;;;;5080923;28;19916;-72
2023/05/01 12:27:23;;;;;;;;;;;;;;;;;;5085346;28;19920;-73
2023/05/01 12:30:09;;;;;;;;;;;;;;;;;;5077149;28;20462;-74
2023/05/01 12:32:56;;;;;;;;;;;;;;;;;;5078121;28;19915;-73
2023/05/01 12:35:45;;;;;;;;;;;;;;;;;;5093154;27;19935;-75
2023/05/01 12:38:32;;;;;;;;;;;;;;;;;;5081072;28;19912;-74
2023/05/01 12:41:18;;;;;;;;;;;;;;;;;;5082528;28;19916;-74
2023/05/01 12:44:05;;;;;;;;;;;;;;;;;;5090136;27;19917;-74
2023/05/01 12:46:51;;;;;;;;;;;;;;;;;;5087612;28;19944;-74
2023/05/01 12:49:39;;;;;;;;;;;;;;;;;;5069501;28;19916;-75
2023/05/01 12:52:26;;;;;;;;;;;;;;;;;;5091984;28;19924;-74
2023/05/01 12:55:12;;;;;;;;;;;;;;;;;;5085701;28;19919;-75
2023/05/01 12:57:59;;;;;;;;;;;;;;;;;;5092909;28;19919;-74
2023/05/01 13:00:45;;;;;;;;;;;;;;;;;;5078556;28;19916;-75
2023/05/01 13:03:32;;;;;;;;;;;;;;;;;;5086459;28;19917;-75
2023/05/01 13:06:18;;;;;;;;;;;;;;;;;;5079118;28;19931;-75
2023/05/01 13:09:06;;;;;;;;;;;;;;;;;;5083065;28;20370;-75
2023/05/01 13:11:52;;;;;;;;;;;;;;;;;;5085115;28;19958;-75
2023/05/01 13:14:42;;;;;;;;;;;;;;;;;;5088540;28;20604;-75
2023/05/01 13:17:28;;;;;;;;;;;;;;;;;;5074065;28;19942;-76
2023/05/01 13:20:16;;;;;;;;;;;;;;;;;;5069700;28;21312;-75
2023/05/01 13:23:02;;;;;;;;;;;;;;;;;;5077996;28;19920;-74
2023/05/01 13:25:49;;;;;;;;;;;;;;;;;;5084513;28;20402;-74
2023/05/01 13:28:37;;;;;;;;;;;;;;;;;;5080594;28;19920;-74
2023/05/01 13:31:23;;;;;;;;;;;;;;;;;;5077485;28;20298;-74
2023/05/01 13:34:10;;;;;;;;;;;;;;;;;;5074067;28;19925;-74
2023/05/01 13:36:56;;;;;;;;;;;;;;;;;;5075020;28;19923;-74
2023/05/01 13:39:43;;;;;;;;;;;;;;;;;;5082584;28;19924;-73
2023/05/01 13:42:29;;;;;;;;;;;;;;;;;;5083438;28;19917;-74
2023/05/01 13:45:16;;;;;;;;;;;;;;;;;;5077510;28;19912;-74
2023/05/01 13:48:02;;;;;;;;;;;;;;;;;;5083938;28;19916;-74
2023/05/01 13:50:49;;;;;;;;;;;;;;;;;;5082967;28;19930;-74
2023/05/01 13:53:35;;;;;;;;;;;;;;;;;;5096085;28;19927;-73
2023/05/01 13:56:22;;;;;;;;;;;;;;;;;;5067289;28;20371;-74
2023/05/01 13:59:09;;;;;;;;;;;;;;;;;;5073877;28;20286;-75
2023/05/01 14:01:55;;;;;;;;;;;;;;;;;;5080390;28;19931;-74
2023/05/01 14:04:43;;;;;;;;;;;;;;;;;;5085019;28;19965;-74
2023/05/01 14:07:29;;;;;;;;;;;;;;;;;;5081871;28;19916;-74
2023/05/01 14:10:16;;;;;;;;;;;;;;;;;;5081973;28;19936;-73
2023/05/01 14:13:03;;;;;;;;;;;;;;;;;;5081303;28;19920;-73
2023/05/01 14:15:50;;;;;;;;;;;;;;;;;;5068208;28;19923;-73
2023/05/01 14:18:36;;;;;;;;;;;;;;;;;;5084009;28;19943;-74
2023/05/01 14:21:23;;;;;;;;;;;;;;;;;;5077939;28;20451;-74
2023/05/01 14:24:09;;;;;;;;;;;;;;;;;;5084943;28;19964;-74
2023/05/01 14:26:56;;;;;;;;;;;;;;;;;;5075552;28;19924;-74
2023/05/01 14:29:43;;;;;;;;;;;;;;;;;;5080517;28;19920;-74
2023/05/01 14:32:32;;;;;;;;;;;;;;;;;;5061487;28;19923;-73
2023/05/01 14:35:18;;;;;;;;;;;;;;;;;;5086468;28;19924;-73
2023/05/01 14:38:05;;;;;;;;;;;;;;;;;;5084448;28;19931;-74
2023/05/01 14:40:51;;;;;;;;;;;;;;;;;;5073836;28;19920;-72
2023/05/01 14:43:38;;;;;;;;;;;;;;;;;;5081930;28;19916;-72
2023/05/01 14:46:25;;;;;;;;;;;;;;;;;;5079327;28;19916;-73
2023/05/01 14:49:11;;;;;;;;;;;;;;;;;;5080788;28;19924;-73
2023/05/01 14:51:58;;;;;;;;;;;;;;;;;;5076244;28;19950;-74
2023/05/01 14:54:45;;;;;;;;;;;;;;;;;;5086873;28;19923;-74
2023/05/01 14:57:36;;;;;;;;;;;;;;;;;;5079032;28;19924;-73
2023/05/01 15:00:22;;;;;;;;;;;;;;;;;;5071830;28;19920;-73
2023/05/01 15:03:09;;;;;;;;;;;;;;;;;;5068612;28;19917;-73
2023/05/01 15:05:56;;;;;;;;;;;;;;;;;;5077950;28;19932;-73
2023/05/01 15:08:42;;;;;;;;;;;;;;;;;;5084864;28;19951;-74
2023/05/01 15:11:29;;;;;;;;;;;;;;;;;;5082560;28;20672;-73
2023/05/01 15:14:15;;;;;;;;;;;;;;;;;;5085006;28;19919;-72
2023/05/01 15:17:02;;;;;;;;;;;;;;;;;;5079796;28;19924;-74
2023/05/01 15:19:48;;;;;;;;;;;;;;;;;;5081751;28;19916;-74
2023/05/01 15:22:35;;;;;;;;;;;;;;;;;;5082477;28;19927;-73
2023/05/01 15:25:21;;;;;;;;;;;;;;;;;;5081016;28;19920;-74
2023/05/01 15:28:08;;;;;;;;;;;;;;;;;;5082588;28;19923;-78
2023/05/01 15:30:55;;;;;;;;;;;;;;;;;;5079259;28;19931;-76
2023/05/01 15:33:41;;;;;;;;;;;;;;;;;;5081719;28;19935;-75
2023/05/01 15:36:28;;;;;;;;;;;;;;;;;;5084815;28;19922;-75
2023/05/01 15:39:14;;;;;;;;;;;;;;;;;;5080169;28;19916;-74
2023/05/01 15:42:01;;;;;;;;;;;;;;;;;;5085413;28;19927;-75
2023/05/01 15:44:47;;;;;;;;;;;;;;;;;;5082367;28;20402;-74
2023/05/01 15:47:34;;;;;;;;;;;;;;;;;;5087673;28;19926;-74
2023/05/01 15:50:22;;;;;;;;;;;;;;;;;;5080906;28;20549;-74
2023/05/01 15:53:08;;;;;;;;;;;;;;;;;;5084234;28;19922;-74
2023/05/01 15:55:55;;;;;;;;;;;;;;;;;;5083226;28;19923;-74
2023/05/01 15:58:41;;;;;;;;;;;;;;;;;;5065071;28;19916;-75
2023/05/01 16:01:28;;;;;;;;;;;;;;;;;;5077354;28;19942;-74
2023/05/01 16:04:14;;;;;;;;;;;;;;;;;;5078526;28;19999;-74
2023/05/01 16:07:01;;;;;;;;;;;;;;;;;;5083662;28;19916;-74
2023/05/01 16:09:48;;;;;;;;;;;;;;;;;;5075868;28;19940;-74
2023/05/01 16:12:34;;;;;;;;;;;;;;;;;;5074421;28;19920;-74
2023/05/01 16:15:21;;;;;;;;;;;;;;;;;;5079415;28;19912;-74
2023/05/01 16:18:08;;;;;;;;;;;;;;;;;;5079652;28;19912;-74
2023/05/01 16:20:55;;;;;;;;;;;;;;;;;;5080853;28;19923;-74
2023/05/01 16:23:42;;;;;;;;;;;;;;;;;;5080157;28;19926;-75
2023/05/01 16:26:31;;;;;;;;;;;;;;;;;;5077999;28;19926;-74
2023/05/01 16:29:18;;;;;;;;;;;;;;;;;;5076727;28;19927;-74
2023/05/01 16:32:04;;;;;;;;;;;;;;;;;;5079409;28;19916;-74
2023/05/01 16:34:51;;;;;;;;;;;;;;;;;;5083029;28;19939;-74
2023/05/01 16:37:38;;;;;;;;;;;;;;;;;;5078910;28;19922;-73
2023/05/01 16:40:24;;;;;;;;;;;;;;;;;;5079401;28;20473;-74
2023/05/01 16:43:11;;;;;;;;;;;;;;;;;;5080425;28;19924;-74
2023/05/01 16:45:57;;;;;;;;;;;;;;;;;;5077090;28;19912;-74
2023/05/01 16:48:44;;;;;;;;;;;;;;;;;;5081628;28;19919;-74
2023/05/01 16:51:31;;;;;;;;;;;;;;;;;;5079401;28;19928;-74
2023/05/01 16:54:18;;;;;;;;;;;;;;;;;;5080061;28;19924;-74
2023/05/01 16:57:04;;;;;;;;;;;;;;;;;;5069671;28;20027;-74
2023/05/01 16:59:51;;;;;;;;;;;;;;;;;;5074295;28;19939;-74
2023/05/01 17:02:37;;;;;;;;;;;;;;;;;;5090196;28;19916;-73
2023/05/01 17:05:24;;;;;;;;;;;;;;;;;;5073209;28;19916;-74
2023/05/01 17:08:11;;;;;;;;;;;;;;;;;;5077434;28;19912;-74
2023/05/01 17:10:57;;;;;;;;;;;;;;;;;;5077778;28;19930;-74
2023/05/01 17:13:44;;;;;;;;;;;;;;;;;;5079322;28;20280;-74
2023/05/01 17:16:32;;;;;;;;;;;;;;;;;;5083386;28;19912;-74
2023/05/01 17:19:18;;;;;;;;;;;;;;;;;;5076292;28;19912;-74
2023/05/01 17:22:05;;;;;;;;;;;;;;;;;;5079563;28;19924;-74
2023/05/01 17:24:51;;;;;;;;;;;;;;;;;;5073327;28;20509;-74
2023/05/01 17:27:38;;;;;;;;;;;;;;;;;;5073860;28;19921;-75
2023/05/01 17:30:24;;;;;;;;;;;;;;;;;;5071544;28;19928;-74
2023/05/01 17:33:11;;;;;;;;;;;;;;;;;;5084778;28;19916;-75
2023/05/01 17:35:59;;;;;;;;;;;;;;;;;;5057941;28;19925;-75
2023/05/01 17:38:45;;;;;;;;;;;;;;;;;;5057607;28;19921;-75
2023/05/01 17:41:32;;;;;;;;;;;;;;;;;;5061493;28;19916;-75
2023/05/01 17:44:18;;;;;;;;;;;;;;;;;;5025210;28;19923;-74
2023/05/01 17:47:05;;;;;;;;;;;;;;;;;;5056542;28;19917;-75
2023/05/01 17:49:51;;;;;;;;;;;;;;;;;;5063877;28;19927;-75
2023/05/01 17:52:38;;;;;;;;;;;;;;;;;;5062359;28;19912;-74
2023/05/01 17:55:26;;;;;;;;;;;;;;;;;;5056924;28;19920;-74
2023/05/01 17:58:13;;;;;;;;;;;;;;;;;;5052049;28;19923;-74
2023/05/01 18:00:59;;;;;;;;;;;;;;;;;;5058798;28;19917;-73
2023/05/01 18:03:47;;;;;;;;;;;;;;;;;;5048361;28;19948;-73
2023/05/01 18:06:34;;;;;;;;;;;;;;;;;;5055411;28;19930;-74
2023/05/01 18:09:21;;;;;;;;;;;;;;;;;;5056544;28;19939;-75
2023/05/01 18:12:09;;;;;;;;;;;;;;;;;;5082543;28;19916;-75
2023/05/01 18:14:55;;;;;;;;;;;;;;;;;;5077932;28;19916;-75
2023/05/01 18:17:42;;;;;;;;;;;;;;;;;;5063718;28;19916;-75
2023/05/01 18:20:28;;;;;;;;;;;;;;;;;;5088313;28;20371;-75
2023/05/01 18:23:15;;;;;;;;;;;;;;;;;;5070929;28;19912;-75
2023/05/01 18:26:01;;;;;;;;;;;;;;;;;;5066453;28;19920;-75
2023/05/01 18:28:48;;;;;;;;;;;;;;;;;;5087002;28;19934;-75
2023/05/01 18:31:36;;;;;;;;;;;;;;;;;;5092771;28;19935;-74
2023/05/01 18:34:23;;;;;;;;;;;;;;;;;;5079173;28;20287;-74
2023/05/01 18:37:10;;;;;;;;;;;;;;;;;;5086883;28;19919;-74
2023/05/01 18:39:57;;;;;;;;;;;;;;;;;;5086215;28;19927;-74
2023/05/01 18:42:43;;;;;;;;;;;;;;;;;;5086139;28;19919;-75
2023/05/01 18:45:30;;;;;;;;;;;;;;;;;;5086187;28;19918;-74
2023/05/01 18:48:16;;;;;;;;;;;;;;;;;;5096220;28;19924;-73
2023/05/01 18:51:03;;;;;;;;;;;;;;;;;;5070254;28;20388;-75
2023/05/01 18:53:49;;;;;;;;;;;;;;;;;;5060864;28;19955;-75
2023/05/01 18:56:36;;;;;;;;;;;;;;;;;;5087044;28;19924;-74
2023/05/01 18:59:25;;;;;;;;;;;;;;;;;;5093039;28;19915;-75